sensor_id;sensor_type;location;lat;lon;timestamp;P1;durP1;ratioP1;P2;durP2;ratioP2
43678;SDS011;29279;50.858;4.392;2023-07-13T00:02:14;15.45;;;2.47;;
43678;SDS011;29279;50.858;4.392;2023-07-13T00:04:40;17.25;;;2.95;;
43678;SDS011;29279;50.858;4.392;2023-07-13T00:07:07;13.70;;;2.65;;
43678;SDS011;29279;50.858;4.392;2023-07-13T00:09:33;16.85;;;2.50;;
43678;SDS011;29279;50.858;4.392;2023-07-13T00:11:58;24.02;;;3.50;;
43678;SDS011;29279;50.858;4.392;2023-07-13T00:14:25;21.55;;;3.45;;
43678;SDS011;29279;50.858;4.392;2023-07-13T00:16:52;14.02;;;2.72;;
43678;SDS011;29279;50.858;4.392;2023-07-13T00:19:18;17.67;;;3.63;;
43678;SDS011;29279;50.858;4.392;2023-07-13T00:21:45;20.77;;;3.80;;
43678;SDS011;29279;50.858;4.392;2023-07-13T00:24:12;22.20;;;3.45;;
43678;SDS011;29279;50.858;4.392;2023-07-13T00:26:42;17.58;;;3.67;;
43678;SDS011;29279;50.858;4.392;2023-07-13T00:29:11;20.33;;;3.75;;
43678;SDS011;29279;50.858;4.392;2023-07-13T00:31:37;19.77;;;3.28;;
43678;SDS011;29279;50.858;4.392;2023-07-13T00:34:03;14.93;;;2.90;;
43678;SDS011;29279;50.858;4.392;2023-07-13T00:36:29;18.63;;;2.83;;
43678;SDS011;29279;50.858;4.392;2023-07-13T00:38:55;13.60;;;2.80;;
43678;SDS011;29279;50.858;4.392;2023-07-13T00:41:21;18.05;;;3.28;;
43678;SDS011;29279;50.858;4.392;2023-07-13T00:43:47;17.15;;;3.30;;
43678;SDS011;29279;50.858;4.392;2023-07-13T00:46:18;17.20;;;3.10;;
43678;SDS011;29279;50.858;4.392;2023-07-13T00:48:47;19.35;;;3.00;;
43678;SDS011;29279;50.858;4.392;2023-07-13T00:51:15;16.77;;;3.10;;
43678;SDS011;29279;50.858;4.392;2023-07-13T00:53:46;7.78;;;2.70;;
43678;SDS011;29279;50.858;4.392;2023-07-13T00:56:12;15.60;;;2.80;;
43678;SDS011;29279;50.858;4.392;2023-07-13T00:58:38;13.38;;;3.00;;
43678;SDS011;29279;50.858;4.392;2023-07-13T01:01:04;17.83;;;3.50;;
43678;SDS011;29279;50.858;4.392;2023-07-13T01:03:30;15.35;;;2.83;;
43678;SDS011;29279;50.858;4.392;2023-07-13T01:05:56;13.35;;;2.90;;
43678;SDS011;29279;50.858;4.392;2023-07-13T01:08:22;10.52;;;2.33;;
43678;SDS011;29279;50.858;4.392;2023-07-13T01:10:51;11.88;;;3.13;;
43678;SDS011;29279;50.858;4.392;2023-07-13T01:13:18;11.65;;;2.45;;
43678;SDS011;29279;50.858;4.392;2023-07-13T01:15:47;18.02;;;2.85;;
43678;SDS011;29279;50.858;4.392;2023-07-13T01:18:17;14.68;;;2.88;;
43678;SDS011;29279;50.858;4.392;2023-07-13T01:20:50;15.40;;;3.13;;
43678;SDS011;29279;50.858;4.392;2023-07-13T01:23:19;13.88;;;3.03;;
43678;SDS011;29279;50.858;4.392;2023-07-13T01:25:45;14.18;;;2.80;;
43678;SDS011;29279;50.858;4.392;2023-07-13T01:28:11;14.27;;;2.40;;
43678;SDS011;29279;50.858;4.392;2023-07-13T01:30:37;26.10;;;3.45;;
43678;SDS011;29279;50.858;4.392;2023-07-13T01:33:05;15.80;;;2.80;;
43678;SDS011;29279;50.858;4.392;2023-07-13T01:35:35;13.55;;;3.13;;
43678;SDS011;29279;50.858;4.392;2023-07-13T01:38:01;12.20;;;2.85;;
43678;SDS011;29279;50.858;4.392;2023-07-13T01:40:27;19.58;;;3.50;;
43678;SDS011;29279;50.858;4.392;2023-07-13T01:42:53;12.02;;;2.25;;
43678;SDS011;29279;50.858;4.392;2023-07-13T01:45:19;16.70;;;3.05;;
43678;SDS011;29279;50.858;4.392;2023-07-13T01:47:45;18.50;;;3.33;;
43678;SDS011;29279;50.858;4.392;2023-07-13T01:50:10;16.17;;;3.10;;
43678;SDS011;29279;50.858;4.392;2023-07-13T01:52:36;14.25;;;2.78;;
43678;SDS011;29279;50.858;4.392;2023-07-13T01:55:02;17.52;;;2.75;;
43678;SDS011;29279;50.858;4.392;2023-07-13T01:57:28;17.13;;;3.33;;
43678;SDS011;29279;50.858;4.392;2023-07-13T01:59:53;14.32;;;3.05;;
43678;SDS011;29279;50.858;4.392;2023-07-13T02:02:19;17.10;;;2.95;;
43678;SDS011;29279;50.858;4.392;2023-07-13T02:04:45;16.15;;;3.85;;
43678;SDS011;29279;50.858;4.392;2023-07-13T02:07:11;15.02;;;3.17;;
43678;SDS011;29279;50.858;4.392;2023-07-13T02:09:36;16.90;;;3.30;;
43678;SDS011;29279;50.858;4.392;2023-07-13T02:12:02;16.90;;;3.35;;
43678;SDS011;29279;50.858;4.392;2023-07-13T02:14:28;19.02;;;3.55;;
43678;SDS011;29279;50.858;4.392;2023-07-13T02:16:54;15.85;;;2.78;;
43678;SDS011;29279;50.858;4.392;2023-07-13T02:19:19;11.60;;;2.40;;
43678;SDS011;29279;50.858;4.392;2023-07-13T02:21:45;17.00;;;3.38;;
43678;SDS011;29279;50.858;4.392;2023-07-13T02:24:11;19.23;;;3.15;;
43678;SDS011;29279;50.858;4.392;2023-07-13T02:26:42;16.75;;;3.35;;
43678;SDS011;29279;50.858;4.392;2023-07-13T02:29:08;21.70;;;4.00;;
43678;SDS011;29279;50.858;4.392;2023-07-13T02:31:34;18.65;;;3.70;;
43678;SDS011;29279;50.858;4.392;2023-07-13T02:34:01;18.83;;;3.55;;
43678;SDS011;29279;50.858;4.392;2023-07-13T02:36:27;21.27;;;3.60;;
43678;SDS011;29279;50.858;4.392;2023-07-13T02:38:53;20.95;;;3.15;;
43678;SDS011;29279;50.858;4.392;2023-07-13T02:41:19;15.45;;;3.00;;
43678;SDS011;29279;50.858;4.392;2023-07-13T02:43:44;21.05;;;3.60;;
43678;SDS011;29279;50.858;4.392;2023-07-13T02:46:10;13.88;;;3.47;;
43678;SDS011;29279;50.858;4.392;2023-07-13T02:48:36;17.65;;;3.42;;
43678;SDS011;29279;50.858;4.392;2023-07-13T02:51:03;13.45;;;3.13;;
43678;SDS011;29279;50.858;4.392;2023-07-13T02:53:29;15.48;;;3.03;;
43678;SDS011;29279;50.858;4.392;2023-07-13T02:55:55;19.83;;;3.72;;
43678;SDS011;29279;50.858;4.392;2023-07-13T02:58:21;19.50;;;3.17;;
43678;SDS011;29279;50.858;4.392;2023-07-13T03:00:47;13.65;;;2.83;;
43678;SDS011;29279;50.858;4.392;2023-07-13T03:03:15;23.05;;;3.28;;
43678;SDS011;29279;50.858;4.392;2023-07-13T03:05:42;13.48;;;3.30;;
43678;SDS011;29279;50.858;4.392;2023-07-13T03:08:10;21.58;;;4.00;;
43678;SDS011;29279;50.858;4.392;2023-07-13T03:10:36;13.63;;;3.05;;
43678;SDS011;29279;50.858;4.392;2023-07-13T03:13:03;20.77;;;3.83;;
43678;SDS011;29279;50.858;4.392;2023-07-13T03:15:29;16.92;;;4.15;;
43678;SDS011;29279;50.858;4.392;2023-07-13T03:17:54;14.00;;;3.67;;
43678;SDS011;29279;50.858;4.392;2023-07-13T03:20:20;16.80;;;3.78;;
43678;SDS011;29279;50.858;4.392;2023-07-13T03:22:46;16.50;;;3.35;;
43678;SDS011;29279;50.858;4.392;2023-07-13T03:25:11;21.17;;;3.55;;
43678;SDS011;29279;50.858;4.392;2023-07-13T03:27:37;13.27;;;3.50;;
43678;SDS011;29279;50.858;4.392;2023-07-13T03:30:04;22.17;;;3.45;;
43678;SDS011;29279;50.858;4.392;2023-07-13T03:32:30;16.92;;;3.35;;
43678;SDS011;29279;50.858;4.392;2023-07-13T03:34:56;25.40;;;3.97;;
43678;SDS011;29279;50.858;4.392;2023-07-13T03:37:25;17.98;;;4.22;;
43678;SDS011;29279;50.858;4.392;2023-07-13T03:39:50;20.15;;;4.05;;
43678;SDS011;29279;50.858;4.392;2023-07-13T03:42:16;15.65;;;3.78;;
43678;SDS011;29279;50.858;4.392;2023-07-13T03:44:42;12.25;;;3.47;;
43678;SDS011;29279;50.858;4.392;2023-07-13T03:47:11;23.95;;;3.63;;
43678;SDS011;29279;50.858;4.392;2023-07-13T03:49:37;18.50;;;3.78;;
43678;SDS011;29279;50.858;4.392;2023-07-13T03:52:02;19.05;;;4.18;;
43678;SDS011;29279;50.858;4.392;2023-07-13T03:54:28;17.85;;;3.95;;
43678;SDS011;29279;50.858;4.392;2023-07-13T03:56:54;25.17;;;4.22;;
43678;SDS011;29279;50.858;4.392;2023-07-13T03:59:20;19.23;;;3.63;;
43678;SDS011;29279;50.858;4.392;2023-07-13T04:01:46;26.05;;;4.07;;
43678;SDS011;29279;50.858;4.392;2023-07-13T04:04:11;20.90;;;3.88;;
43678;SDS011;29279;50.858;4.392;2023-07-13T04:06:37;15.43;;;3.75;;
43678;SDS011;29279;50.858;4.392;2023-07-13T04:09:03;22.35;;;4.00;;
43678;SDS011;29279;50.858;4.392;2023-07-13T04:11:33;17.25;;;3.88;;
43678;SDS011;29279;50.858;4.392;2023-07-13T04:14:01;19.67;;;3.97;;
43678;SDS011;29279;50.858;4.392;2023-07-13T04:16:27;18.83;;;4.25;;
43678;SDS011;29279;50.858;4.392;2023-07-13T04:18:52;25.40;;;4.95;;
43678;SDS011;29279;50.858;4.392;2023-07-13T04:21:20;15.45;;;3.95;;
43678;SDS011;29279;50.858;4.392;2023-07-13T04:23:46;21.92;;;4.10;;
43678;SDS011;29279;50.858;4.392;2023-07-13T04:26:11;19.48;;;3.75;;
43678;SDS011;29279;50.858;4.392;2023-07-13T04:28:37;26.77;;;4.47;;
43678;SDS011;29279;50.858;4.392;2023-07-13T04:31:03;23.60;;;4.72;;
43678;SDS011;29279;50.858;4.392;2023-07-13T04:33:29;22.40;;;4.20;;
43678;SDS011;29279;50.858;4.392;2023-07-13T04:35:55;21.17;;;3.85;;
43678;SDS011;29279;50.858;4.392;2023-07-13T04:38:24;29.33;;;4.72;;
43678;SDS011;29279;50.858;4.392;2023-07-13T04:40:53;19.17;;;3.95;;
43678;SDS011;29279;50.858;4.392;2023-07-13T04:43:25;25.20;;;4.80;;
43678;SDS011;29279;50.858;4.392;2023-07-13T04:45:51;18.45;;;3.42;;
43678;SDS011;29279;50.858;4.392;2023-07-13T04:48:18;14.60;;;4.32;;
43678;SDS011;29279;50.858;4.392;2023-07-13T04:50:44;21.42;;;4.38;;
43678;SDS011;29279;50.858;4.392;2023-07-13T04:53:10;18.60;;;3.28;;
43678;SDS011;29279;50.858;4.392;2023-07-13T04:55:36;28.65;;;5.75;;
43678;SDS011;29279;50.858;4.392;2023-07-13T04:58:03;18.77;;;4.28;;
43678;SDS011;29279;50.858;4.392;2023-07-13T05:00:29;24.90;;;4.82;;
43678;SDS011;29279;50.858;4.392;2023-07-13T05:02:56;22.33;;;4.85;;
43678;SDS011;29279;50.858;4.392;2023-07-13T05:05:23;25.83;;;4.22;;
43678;SDS011;29279;50.858;4.392;2023-07-13T05:07:50;18.95;;;4.35;;
43678;SDS011;29279;50.858;4.392;2023-07-13T05:10:16;28.90;;;4.93;;
43678;SDS011;29279;50.858;4.392;2023-07-13T05:12:42;24.98;;;5.03;;
43678;SDS011;29279;50.858;4.392;2023-07-13T05:15:08;34.03;;;5.07;;
43678;SDS011;29279;50.858;4.392;2023-07-13T05:17:34;27.30;;;4.43;;
43678;SDS011;29279;50.858;4.392;2023-07-13T05:20:00;22.40;;;4.28;;
43678;SDS011;29279;50.858;4.392;2023-07-13T05:22:25;29.33;;;4.93;;
43678;SDS011;29279;50.858;4.392;2023-07-13T05:24:51;23.58;;;4.57;;
43678;SDS011;29279;50.858;4.392;2023-07-13T05:27:17;27.88;;;4.60;;
43678;SDS011;29279;50.858;4.392;2023-07-13T05:29:42;21.95;;;4.20;;
43678;SDS011;29279;50.858;4.392;2023-07-13T05:32:08;29.98;;;4.80;;
43678;SDS011;29279;50.858;4.392;2023-07-13T05:34:34;28.15;;;5.05;;
43678;SDS011;29279;50.858;4.392;2023-07-13T05:36:59;26.40;;;4.63;;
43678;SDS011;29279;50.858;4.392;2023-07-13T05:39:25;16.05;;;4.32;;
43678;SDS011;29279;50.858;4.392;2023-07-13T05:41:52;26.60;;;4.07;;
43678;SDS011;29279;50.858;4.392;2023-07-13T05:44:18;20.58;;;4.25;;
43678;SDS011;29279;50.858;4.392;2023-07-13T05:46:44;30.58;;;4.90;;
43678;SDS011;29279;50.858;4.392;2023-07-13T05:49:10;23.23;;;3.92;;
43678;SDS011;29279;50.858;4.392;2023-07-13T05:51:36;22.88;;;4.30;;
43678;SDS011;29279;50.858;4.392;2023-07-13T05:54:01;27.17;;;4.72;;
43678;SDS011;29279;50.858;4.392;2023-07-13T05:56:27;21.55;;;3.92;;
43678;SDS011;29279;50.858;4.392;2023-07-13T05:58:53;21.20;;;4.60;;
43678;SDS011;29279;50.858;4.392;2023-07-13T06:01:18;22.10;;;4.93;;
43678;SDS011;29279;50.858;4.392;2023-07-13T06:03:45;26.15;;;4.32;;
43678;SDS011;29279;50.858;4.392;2023-07-13T06:06:12;16.95;;;4.22;;
43678;SDS011;29279;50.858;4.392;2023-07-13T06:08:38;31.20;;;5.50;;
43678;SDS011;29279;50.858;4.392;2023-07-13T06:11:05;22.67;;;5.15;;
43678;SDS011;29279;50.858;4.392;2023-07-13T06:13:42;22.13;;;4.25;;
43678;SDS011;29279;50.858;4.392;2023-07-13T06:16:08;22.02;;;4.80;;
43678;SDS011;29279;50.858;4.392;2023-07-13T06:18:35;21.85;;;4.70;;
43678;SDS011;29279;50.858;4.392;2023-07-13T06:21:13;26.80;;;4.65;;
43678;SDS011;29279;50.858;4.392;2023-07-13T06:23:41;31.42;;;4.80;;
43678;SDS011;29279;50.858;4.392;2023-07-13T06:26:08;29.15;;;5.28;;
43678;SDS011;29279;50.858;4.392;2023-07-13T06:28:34;36.30;;;6.57;;
43678;SDS011;29279;50.858;4.392;2023-07-13T06:31:00;23.17;;;4.35;;
43678;SDS011;29279;50.858;4.392;2023-07-13T06:33:26;24.75;;;4.72;;
43678;SDS011;29279;50.858;4.392;2023-07-13T06:35:52;16.23;;;3.85;;
43678;SDS011;29279;50.858;4.392;2023-07-13T06:38:20;27.75;;;5.05;;
43678;SDS011;29279;50.858;4.392;2023-07-13T06:40:46;19.27;;;4.53;;
43678;SDS011;29279;50.858;4.392;2023-07-13T06:43:11;29.00;;;4.97;;
43678;SDS011;29279;50.858;4.392;2023-07-13T06:45:44;27.02;;;5.78;;
43678;SDS011;29279;50.858;4.392;2023-07-13T06:48:12;22.45;;;4.18;;
43678;SDS011;29279;50.858;4.392;2023-07-13T06:50:38;19.95;;;4.88;;
43678;SDS011;29279;50.858;4.392;2023-07-13T06:53:04;21.67;;;4.10;;
43678;SDS011;29279;50.858;4.392;2023-07-13T06:55:30;22.83;;;5.18;;
43678;SDS011;29279;50.858;4.392;2023-07-13T06:57:55;33.28;;;5.68;;
43678;SDS011;29279;50.858;4.392;2023-07-13T07:00:21;26.02;;;5.05;;
43678;SDS011;29279;50.858;4.392;2023-07-13T07:02:47;17.40;;;3.88;;
43678;SDS011;29279;50.858;4.392;2023-07-13T07:05:12;29.73;;;4.72;;
43678;SDS011;29279;50.858;4.392;2023-07-13T07:07:38;24.10;;;4.93;;
43678;SDS011;29279;50.858;4.392;2023-07-13T07:10:04;21.23;;;4.18;;
43678;SDS011;29279;50.858;4.392;2023-07-13T07:12:30;17.52;;;4.82;;
43678;SDS011;29279;50.858;4.392;2023-07-13T07:14:55;20.40;;;4.45;;
43678;SDS011;29279;50.858;4.392;2023-07-13T07:17:22;18.80;;;4.05;;
43678;SDS011;29279;50.858;4.392;2023-07-13T07:19:48;23.17;;;5.13;;
43678;SDS011;29279;50.858;4.392;2023-07-13T07:22:13;23.63;;;4.40;;
43678;SDS011;29279;50.858;4.392;2023-07-13T07:24:39;20.65;;;4.00;;
43678;SDS011;29279;50.858;4.392;2023-07-13T07:27:04;17.85;;;4.13;;
43678;SDS011;29279;50.858;4.392;2023-07-13T07:29:31;16.13;;;4.15;;
43678;SDS011;29279;50.858;4.392;2023-07-13T07:31:56;19.83;;;4.22;;
43678;SDS011;29279;50.858;4.392;2023-07-13T07:34:24;19.48;;;3.95;;
43678;SDS011;29279;50.858;4.392;2023-07-13T07:36:50;19.27;;;4.35;;
43678;SDS011;29279;50.858;4.392;2023-07-13T07:39:16;20.40;;;4.35;;
43678;SDS011;29279;50.858;4.392;2023-07-13T07:45:47;25.30;;;4.93;;
43678;SDS011;29279;50.858;4.392;2023-07-13T07:48:12;21.92;;;4.70;;
43678;SDS011;29279;50.858;4.392;2023-07-13T07:50:38;21.88;;;4.57;;
43678;SDS011;29279;50.858;4.392;2023-07-13T07:53:04;14.02;;;3.65;;
43678;SDS011;29279;50.858;4.392;2023-07-13T07:55:33;13.50;;;3.63;;
43678;SDS011;29279;50.858;4.392;2023-07-13T07:58:00;17.20;;;3.83;;
43678;SDS011;29279;50.858;4.392;2023-07-13T08:00:25;37.92;;;5.68;;
43678;SDS011;29279;50.858;4.392;2023-07-13T08:02:53;14.45;;;3.63;;
43678;SDS011;29279;50.858;4.392;2023-07-13T08:05:18;13.60;;;3.47;;
43678;SDS011;29279;50.858;4.392;2023-07-13T08:07:44;17.25;;;3.95;;
43678;SDS011;29279;50.858;4.392;2023-07-13T08:10:10;20.90;;;4.07;;
43678;SDS011;29279;50.858;4.392;2023-07-13T08:12:36;19.45;;;4.45;;
43678;SDS011;29279;50.858;4.392;2023-07-13T08:21:56;17.80;;;4.07;;
43678;SDS011;29279;50.858;4.392;2023-07-13T08:25:00;15.38;;;3.92;;
43678;SDS011;29279;50.858;4.392;2023-07-13T08:27:29;14.70;;;3.33;;
43678;SDS011;29279;50.858;4.392;2023-07-13T08:30:02;22.20;;;5.28;;
43678;SDS011;29279;50.858;4.392;2023-07-13T08:39:13;19.85;;;4.43;;
43678;SDS011;29279;50.858;4.392;2023-07-13T08:41:39;15.13;;;3.92;;
43678;SDS011;29279;50.858;4.392;2023-07-13T08:44:05;19.27;;;4.35;;
43678;SDS011;29279;50.858;4.392;2023-07-13T08:46:44;11.52;;;3.10;;
43678;SDS011;29279;50.858;4.392;2023-07-13T08:49:13;13.68;;;3.50;;
43678;SDS011;29279;50.858;4.392;2023-07-13T08:54:20;13.10;;;3.30;;
43678;SDS011;29279;50.858;4.392;2023-07-13T08:56:56;16.00;;;3.63;;
43678;SDS011;29279;50.858;4.392;2023-07-13T08:59:24;12.48;;;3.50;;
43678;SDS011;29279;50.858;4.392;2023-07-13T09:15:43;17.63;;;3.65;;
43678;SDS011;29279;50.858;4.392;2023-07-13T09:18:51;11.70;;;3.25;;
43678;SDS011;29279;50.858;4.392;2023-07-13T09:21:08;11.50;;;3.22;;
43678;SDS011;29279;50.858;4.392;2023-07-13T09:23:40;14.10;;;3.30;;
43678;SDS011;29279;50.858;4.392;2023-07-13T09:26:09;11.73;;;2.50;;
43678;SDS011;29279;50.858;4.392;2023-07-13T09:28:45;10.27;;;2.92;;
43678;SDS011;29279;50.858;4.392;2023-07-13T09:31:26;12.45;;;3.08;;
43678;SDS011;29279;50.858;4.392;2023-07-13T09:34:01;12.52;;;3.20;;
43678;SDS011;29279;50.858;4.392;2023-07-13T09:36:28;18.70;;;3.63;;
43678;SDS011;29279;50.858;4.392;2023-07-13T09:39:19;10.65;;;3.33;;
43678;SDS011;29279;50.858;4.392;2023-07-13T09:47:16;10.43;;;2.83;;
43678;SDS011;29279;50.858;4.392;2023-07-13T09:50:02;10.27;;;2.72;;
43678;SDS011;29279;50.858;4.392;2023-07-13T09:52:43;10.48;;;2.80;;
43678;SDS011;29279;50.858;4.392;2023-07-13T09:58:41;11.90;;;3.13;;
43678;SDS011;29279;50.858;4.392;2023-07-13T10:00:59;12.25;;;3.17;;
43678;SDS011;29279;50.858;4.392;2023-07-13T10:03:33;11.32;;;3.00;;
43678;SDS011;29279;50.858;4.392;2023-07-13T10:06:15;9.65;;;3.05;;
43678;SDS011;29279;50.858;4.392;2023-07-13T10:08:43;10.32;;;2.33;;
43678;SDS011;29279;50.858;4.392;2023-07-13T10:11:11;9.77;;;2.75;;
43678;SDS011;29279;50.858;4.392;2023-07-13T10:13:43;13.27;;;2.95;;
43678;SDS011;29279;50.858;4.392;2023-07-13T10:16:13;10.70;;;2.72;;
43678;SDS011;29279;50.858;4.392;2023-07-13T10:23:39;13.32;;;2.90;;
43678;SDS011;29279;50.858;4.392;2023-07-13T10:26:09;10.85;;;2.67;;
43678;SDS011;29279;50.858;4.392;2023-07-13T10:28:41;11.98;;;2.75;;
43678;SDS011;29279;50.858;4.392;2023-07-13T10:31:11;11.20;;;2.53;;
43678;SDS011;29279;50.858;4.392;2023-07-13T10:33:38;10.95;;;2.67;;
43678;SDS011;29279;50.858;4.392;2023-07-13T10:36:12;11.02;;;2.65;;
43678;SDS011;29279;50.858;4.392;2023-07-13T10:38:53;7.00;;;2.17;;
43678;SDS011;29279;50.858;4.392;2023-07-13T10:41:22;10.38;;;2.20;;
43678;SDS011;29279;50.858;4.392;2023-07-13T10:43:51;7.28;;;2.13;;
43678;SDS011;29279;50.858;4.392;2023-07-13T10:46:23;9.93;;;2.55;;
43678;SDS011;29279;50.858;4.392;2023-07-13T10:51:20;12.02;;;2.65;;
43678;SDS011;29279;50.858;4.392;2023-07-13T10:53:47;15.23;;;2.70;;
43678;SDS011;29279;50.858;4.392;2023-07-13T10:56:34;11.88;;;2.83;;
43678;SDS011;29279;50.858;4.392;2023-07-13T10:59:46;8.98;;;2.92;;
43678;SDS011;29279;50.858;4.392;2023-07-13T11:02:00;11.05;;;2.55;;
43678;SDS011;29279;50.858;4.392;2023-07-13T11:04:43;9.63;;;2.53;;
43678;SDS011;29279;50.858;4.392;2023-07-13T11:07:20;10.10;;;2.63;;
43678;SDS011;29279;50.858;4.392;2023-07-13T11:09:51;9.82;;;2.45;;
43678;SDS011;29279;50.858;4.392;2023-07-13T11:22:49;10.65;;;2.40;;
43678;SDS011;29279;50.858;4.392;2023-07-13T11:30:48;7.57;;;2.28;;
43678;SDS011;29279;50.858;4.392;2023-07-13T11:33:25;10.10;;;2.50;;
43678;SDS011;29279;50.858;4.392;2023-07-13T11:36:13;14.57;;;2.60;;
43678;SDS011;29279;50.858;4.392;2023-07-13T11:38:51;12.35;;;2.80;;
43678;SDS011;29279;50.858;4.392;2023-07-13T11:41:38;13.40;;;2.85;;
43678;SDS011;29279;50.858;4.392;2023-07-13T11:46:37;10.18;;;2.58;;
43678;SDS011;29279;50.858;4.392;2023-07-13T11:49:06;10.45;;;2.67;;
43678;SDS011;29279;50.858;4.392;2023-07-13T11:51:33;8.50;;;2.17;;
43678;SDS011;29279;50.858;4.392;2023-07-13T11:54:02;11.20;;;2.08;;
43678;SDS011;29279;50.858;4.392;2023-07-13T11:56:31;9.13;;;2.05;;
43678;SDS011;29279;50.858;4.392;2023-07-13T11:59:03;8.68;;;2.55;;
43678;SDS011;29279;50.858;4.392;2023-07-13T12:01:42;16.80;;;4.20;;
43678;SDS011;29279;50.858;4.392;2023-07-13T12:04:23;10.90;;;2.28;;
43678;SDS011;29279;50.858;4.392;2023-07-13T12:07:23;12.10;;;3.33;;
43678;SDS011;29279;50.858;4.392;2023-07-13T12:09:42;5.85;;;1.90;;
43678;SDS011;29279;50.858;4.392;2023-07-13T12:12:16;7.53;;;2.15;;
43678;SDS011;29279;50.858;4.392;2023-07-13T12:14:44;10.75;;;2.13;;
43678;SDS011;29279;50.858;4.392;2023-07-13T12:17:18;7.55;;;2.35;;
43678;SDS011;29279;50.858;4.392;2023-07-13T12:19:45;9.13;;;2.55;;
43678;SDS011;29279;50.858;4.392;2023-07-13T12:22:14;13.38;;;2.47;;
43678;SDS011;29279;50.858;4.392;2023-07-13T12:24:41;9.20;;;1.65;;
43678;SDS011;29279;50.858;4.392;2023-07-13T12:27:19;12.25;;;2.65;;
43678;SDS011;29279;50.858;4.392;2023-07-13T12:30:03;11.10;;;1.70;;
43678;SDS011;29279;50.858;4.392;2023-07-13T12:32:31;5.60;;;1.52;;
43678;SDS011;29279;50.858;4.392;2023-07-13T12:35:16;7.28;;;1.83;;
43678;SDS011;29279;50.858;4.392;2023-07-13T12:37:44;6.70;;;1.52;;
43678;SDS011;29279;50.858;4.392;2023-07-13T12:40:18;7.93;;;1.60;;
43678;SDS011;29279;50.858;4.392;2023-07-13T12:42:47;8.98;;;2.00;;
43678;SDS011;29279;50.858;4.392;2023-07-13T12:45:25;7.32;;;2.28;;
43678;SDS011;29279;50.858;4.392;2023-07-13T12:47:56;6.28;;;2.55;;
43678;SDS011;29279;50.858;4.392;2023-07-13T12:50:42;6.60;;;2.80;;
43678;SDS011;29279;50.858;4.392;2023-07-13T12:53:19;7.25;;;2.60;;
43678;SDS011;29279;50.858;4.392;2023-07-13T12:55:54;9.20;;;3.13;;
43678;SDS011;29279;50.858;4.392;2023-07-13T12:58:32;7.40;;;2.78;;
43678;SDS011;29279;50.858;4.392;2023-07-13T13:01:03;12.45;;;3.60;;
43678;SDS011;29279;50.858;4.392;2023-07-13T13:03:40;11.10;;;2.78;;
43678;SDS011;29279;50.858;4.392;2023-07-13T13:08:44;12.85;;;3.15;;
43678;SDS011;29279;50.858;4.392;2023-07-13T13:11:11;10.60;;;3.33;;
43678;SDS011;29279;50.858;4.392;2023-07-13T13:13:40;7.10;;;2.38;;
43678;SDS011;29279;50.858;4.392;2023-07-13T13:18:41;9.07;;;3.03;;
43678;SDS011;29279;50.858;4.392;2023-07-13T13:21:08;5.78;;;2.38;;
43678;SDS011;29279;50.858;4.392;2023-07-13T13:23:34;6.28;;;2.08;;
43678;SDS011;29279;50.858;4.392;2023-07-13T13:26:00;11.02;;;2.35;;
43678;SDS011;29279;50.858;4.392;2023-07-13T13:28:27;6.38;;;2.38;;
43678;SDS011;29279;50.858;4.392;2023-07-13T13:30:52;4.80;;;2.15;;
43678;SDS011;29279;50.858;4.392;2023-07-13T13:33:18;5.15;;;2.00;;
43678;SDS011;29279;50.858;4.392;2023-07-13T13:35:46;4.55;;;2.05;;
43678;SDS011;29279;50.858;4.392;2023-07-13T13:38:30;6.90;;;2.20;;
43678;SDS011;29279;50.858;4.392;2023-07-13T13:40:57;6.80;;;2.30;;
43678;SDS011;29279;50.858;4.392;2023-07-13T13:43:24;4.40;;;2.40;;
43678;SDS011;29279;50.858;4.392;2023-07-13T13:45:55;7.10;;;1.95;;
43678;SDS011;29279;50.858;4.392;2023-07-13T13:48:30;5.35;;;2.17;;
43678;SDS011;29279;50.858;4.392;2023-07-13T13:50:58;8.65;;;1.98;;
43678;SDS011;29279;50.858;4.392;2023-07-13T13:53:25;4.20;;;1.60;;
43678;SDS011;29279;50.858;4.392;2023-07-13T13:55:52;7.05;;;1.85;;
43678;SDS011;29279;50.858;4.392;2023-07-13T13:58:20;7.43;;;2.10;;
43678;SDS011;29279;50.858;4.392;2023-07-13T14:00:47;7.07;;;2.00;;
43678;SDS011;29279;50.858;4.392;2023-07-13T14:03:15;7.80;;;2.45;;
43678;SDS011;29279;50.858;4.392;2023-07-13T14:05:43;8.63;;;2.40;;
43678;SDS011;29279;50.858;4.392;2023-07-13T14:08:14;5.50;;;2.40;;
43678;SDS011;29279;50.858;4.392;2023-07-13T14:10:41;4.37;;;1.57;;
43678;SDS011;29279;50.858;4.392;2023-07-13T14:13:09;5.40;;;1.77;;
43678;SDS011;29279;50.858;4.392;2023-07-13T14:15:54;17.90;;;4.65;;
43678;SDS011;29279;50.858;4.392;2023-07-13T14:18:19;6.57;;;2.45;;
43678;SDS011;29279;50.858;4.392;2023-07-13T14:20:46;10.77;;;2.13;;
43678;SDS011;29279;50.858;4.392;2023-07-13T14:23:13;7.88;;;2.00;;
43678;SDS011;29279;50.858;4.392;2023-07-13T14:25:40;8.07;;;2.10;;
43678;SDS011;29279;50.858;4.392;2023-07-13T14:28:18;24.00;;;7.32;;
43678;SDS011;29279;50.858;4.392;2023-07-13T14:30:53;9.25;;;2.30;;
43678;SDS011;29279;50.858;4.392;2023-07-13T14:33:19;6.07;;;2.00;;
43678;SDS011;29279;50.858;4.392;2023-07-13T14:35:45;6.05;;;1.88;;
43678;SDS011;29279;50.858;4.392;2023-07-13T14:38:13;7.70;;;1.83;;
43678;SDS011;29279;50.858;4.392;2023-07-13T14:40:41;7.22;;;1.70;;
43678;SDS011;29279;50.858;4.392;2023-07-13T14:43:09;3.78;;;1.75;;
43678;SDS011;29279;50.858;4.392;2023-07-13T14:45:36;4.53;;;1.92;;
43678;SDS011;29279;50.858;4.392;2023-07-13T14:48:20;5.97;;;1.98;;
43678;SDS011;29279;50.858;4.392;2023-07-13T14:50:55;8.48;;;2.00;;
43678;SDS011;29279;50.858;4.392;2023-07-13T14:53:22;5.60;;;1.60;;
43678;SDS011;29279;50.858;4.392;2023-07-13T14:55:50;5.38;;;1.60;;
43678;SDS011;29279;50.858;4.392;2023-07-13T14:58:16;5.80;;;1.88;;
43678;SDS011;29279;50.858;4.392;2023-07-13T15:00:41;5.43;;;1.60;;
43678;SDS011;29279;50.858;4.392;2023-07-13T15:03:13;5.15;;;1.70;;
43678;SDS011;29279;50.858;4.392;2023-07-13T15:05:46;5.53;;;1.40;;
43678;SDS011;29279;50.858;4.392;2023-07-13T15:08:12;3.88;;;1.52;;
43678;SDS011;29279;50.858;4.392;2023-07-13T15:10:38;4.97;;;1.83;;
43678;SDS011;29279;50.858;4.392;2023-07-13T15:13:17;6.88;;;1.90;;
43678;SDS011;29279;50.858;4.392;2023-07-13T15:15:49;5.28;;;1.80;;
43678;SDS011;29279;50.858;4.392;2023-07-13T15:18:18;5.90;;;1.90;;
43678;SDS011;29279;50.858;4.392;2023-07-13T15:20:46;8.00;;;1.83;;
43678;SDS011;29279;50.858;4.392;2023-07-13T15:23:13;4.60;;;1.70;;
43678;SDS011;29279;50.858;4.392;2023-07-13T15:25:41;5.03;;;1.95;;
43678;SDS011;29279;50.858;4.392;2023-07-13T15:28:08;8.77;;;1.83;;
43678;SDS011;29279;50.858;4.392;2023-07-13T15:30:38;5.13;;;1.77;;
43678;SDS011;29279;50.858;4.392;2023-07-13T15:33:09;6.82;;;1.77;;
43678;SDS011;29279;50.858;4.392;2023-07-13T15:35:38;5.18;;;1.73;;
43678;SDS011;29279;50.858;4.392;2023-07-13T15:38:21;11.48;;;2.10;;
43678;SDS011;29279;50.858;4.392;2023-07-13T15:40:50;7.10;;;1.77;;
43678;SDS011;29279;50.858;4.392;2023-07-13T15:43:17;5.72;;;1.90;;
43678;SDS011;29279;50.858;4.392;2023-07-13T15:45:44;14.52;;;2.00;;
43678;SDS011;29279;50.858;4.392;2023-07-13T15:48:21;4.05;;;2.20;;
43678;SDS011;29279;50.858;4.392;2023-07-13T15:53:17;6.65;;;2.00;;
43678;SDS011;29279;50.858;4.392;2023-07-13T15:55:48;4.53;;;2.15;;
43678;SDS011;29279;50.858;4.392;2023-07-13T15:58:15;6.00;;;1.77;;
43678;SDS011;29279;50.858;4.392;2023-07-13T16:00:40;8.43;;;2.03;;
43678;SDS011;29279;50.858;4.392;2023-07-13T16:03:06;5.55;;;1.90;;
43678;SDS011;29279;50.858;4.392;2023-07-13T16:05:33;6.18;;;2.08;;